Terminal Aerodrome Forecast
Issued by NWS

Home | Current Version | Previous Version | Text Only | Print | Product List | Glossary On
Versions: 1 2 3 4 5 6 7 8 9 10 11 12 13 14
000
FTUS42 KTBW 310539
TAFPGD
TAF
KPGD 310539Z 3106/0106 VRB03KT P6SM SKC
     FM311400 VRB03KT P6SM SCT035 SCT250
     FM311800 31005KT P6SM VCTS SCT050CB SCT250
     FM312100 28008KT P6SM VCTS BKN050CB
     FM312300 34007KT P6SM VCTS SCT060CB BKN080
     FM010200 05005KT P6SM SCT035 SCT080 BKN250=

USA.gov is the U.S. government's official web portal to all federal, state and local government web resources and services.